sensor_id;sensor_type;location;lat;lon;timestamp;temperature;humidity
52036;DHT22;38046;49.448;32.074;2022-12-18T00:01:05;5.10;87.00
52036;DHT22;38046;49.448;32.074;2022-12-18T00:03:38;5.00;86.70
52036;DHT22;38046;49.448;32.074;2022-12-18T00:06:04;5.00;86.50
52036;DHT22;38046;49.448;32.074;2022-12-18T00:08:29;5.00;86.70
52036;DHT22;38046;49.448;32.074;2022-12-18T00:10:55;4.90;86.90
52036;DHT22;38046;49.448;32.074;2022-12-18T00:13:21;4.90;86.70
52036;DHT22;38046;49.448;32.074;2022-12-18T00:15:46;4.90;86.70
52036;DHT22;38046;49.448;32.074;2022-12-18T00:18:12;4.90;86.70
52036;DHT22;38046;49.448;32.074;2022-12-18T00:20:39;4.90;86.80
52036;DHT22;38046;49.448;32.074;2022-12-18T00:23:06;4.90;86.90
52036;DHT22;38046;49.448;32.074;2022-12-18T00:25:35;4.90;86.60
52036;DHT22;38046;49.448;32.074;2022-12-18T00:28:02;4.90;85.90
52036;DHT22;38046;49.448;32.074;2022-12-18T00:30:28;4.90;85.90
52036;DHT22;38046;49.448;32.074;2022-12-18T00:32:54;4.90;85.80
52036;DHT22;38046;49.448;32.074;2022-12-18T00:35:19;4.80;85.30
52036;DHT22;38046;49.448;32.074;2022-12-18T00:37:45;4.80;85.70
52036;DHT22;38046;49.448;32.074;2022-12-18T00:40:11;4.80;85.40
52036;DHT22;38046;49.448;32.074;2022-12-18T00:42:37;4.80;85.50
52036;DHT22;38046;49.448;32.074;2022-12-18T00:45:25;4.80;85.30
52036;DHT22;38046;49.448;32.074;2022-12-18T00:47:51;4.80;85.30
52036;DHT22;38046;49.448;32.074;2022-12-18T00:50:17;4.80;85.20
52036;DHT22;38046;49.448;32.074;2022-12-18T00:52:43;4.80;85.10
52036;DHT22;38046;49.448;32.074;2022-12-18T00:55:09;4.80;85.00
52036;DHT22;38046;49.448;32.074;2022-12-18T00:57:35;4.80;85.00
52036;DHT22;38046;49.448;32.074;2022-12-18T01:00:02;4.70;85.20
52036;DHT22;38046;49.448;32.074;2022-12-18T01:02:28;4.80;85.30
52036;DHT22;38046;49.448;32.074;2022-12-18T01:04:53;4.70;85.40
52036;DHT22;38046;49.448;32.074;2022-12-18T01:07:19;4.80;85.30
52036;DHT22;38046;49.448;32.074;2022-12-18T01:09:44;4.80;85.20
52036;DHT22;38046;49.448;32.074;2022-12-18T01:12:10;4.80;85.20
52036;DHT22;38046;49.448;32.074;2022-12-18T01:14:36;4.80;85.40
52036;DHT22;38046;49.448;32.074;2022-12-18T01:17:03;4.80;85.30
52036;DHT22;38046;49.448;32.074;2022-12-18T01:19:29;4.70;85.10
52036;DHT22;38046;49.448;32.074;2022-12-18T01:21:55;4.70;85.20
52036;DHT22;38046;49.448;32.074;2022-12-18T01:24:20;4.70;85.10
52036;DHT22;38046;49.448;32.074;2022-12-18T01:26:46;4.70;85.10
52036;DHT22;38046;49.448;32.074;2022-12-18T01:29:11;4.70;84.90
52036;DHT22;38046;49.448;32.074;2022-12-18T01:31:37;4.70;84.90
52036;DHT22;38046;49.448;32.074;2022-12-18T01:34:04;4.70;84.60
52036;DHT22;38046;49.448;32.074;2022-12-18T01:36:35;4.70;84.50
52036;DHT22;38046;49.448;32.074;2022-12-18T01:39:04;4.70;84.10
52036;DHT22;38046;49.448;32.074;2022-12-18T01:41:31;4.70;84.00
52036;DHT22;38046;49.448;32.074;2022-12-18T01:47:39;4.60;84.00
52036;DHT22;38046;49.448;32.074;2022-12-18T01:50:11;4.60;83.80
52036;DHT22;38046;49.448;32.074;2022-12-18T01:52:37;4.50;83.40
52036;DHT22;38046;49.448;32.074;2022-12-18T01:55:05;4.50;83.80
52036;DHT22;38046;49.448;32.074;2022-12-18T01:57:31;4.50;84.00
52036;DHT22;38046;49.448;32.074;2022-12-18T02:00:04;4.40;83.40
52036;DHT22;38046;49.448;32.074;2022-12-18T02:02:30;4.40;83.70
52036;DHT22;38046;49.448;32.074;2022-12-18T02:04:56;4.30;83.50
52036;DHT22;38046;49.448;32.074;2022-12-18T02:07:37;4.30;83.40
52036;DHT22;38046;49.448;32.074;2022-12-18T02:10:40;4.30;83.70
52036;DHT22;38046;49.448;32.074;2022-12-18T02:13:21;4.30;83.90
52036;DHT22;38046;49.448;32.074;2022-12-18T02:16:21;4.30;84.00
52036;DHT22;38046;49.448;32.074;2022-12-18T02:18:52;4.30;83.90
52036;DHT22;38046;49.448;32.074;2022-12-18T02:24:19;4.30;84.00
52036;DHT22;38046;49.448;32.074;2022-12-18T02:26:56;4.30;83.60
52036;DHT22;38046;49.448;32.074;2022-12-18T02:29:26;4.30;83.60
52036;DHT22;38046;49.448;32.074;2022-12-18T02:31:57;4.40;83.90
52036;DHT22;38046;49.448;32.074;2022-12-18T02:34:29;4.40;83.90
52036;DHT22;38046;49.448;32.074;2022-12-18T02:36:56;4.40;83.60
52036;DHT22;38046;49.448;32.074;2022-12-18T02:39:23;4.40;83.20
52036;DHT22;38046;49.448;32.074;2022-12-18T02:41:50;4.40;83.20
52036;DHT22;38046;49.448;32.074;2022-12-18T02:44:16;4.40;82.70
52036;DHT22;38046;49.448;32.074;2022-12-18T02:46:46;4.40;82.40
52036;DHT22;38046;49.448;32.074;2022-12-18T02:52:20;4.30;82.50
52036;DHT22;38046;49.448;32.074;2022-12-18T02:57:55;4.20;82.00
52036;DHT22;38046;49.448;32.074;2022-12-18T03:00:28;4.20;81.70
52036;DHT22;38046;49.448;32.074;2022-12-18T03:03:24;4.10;81.60
52036;DHT22;38046;49.448;32.074;2022-12-18T03:05:58;4.10;81.50
52036;DHT22;38046;49.448;32.074;2022-12-18T03:08:27;4.00;81.70
52036;DHT22;38046;49.448;32.074;2022-12-18T03:10:59;4.00;81.80
52036;DHT22;38046;49.448;32.074;2022-12-18T03:13:33;4.00;82.20
52036;DHT22;38046;49.448;32.074;2022-12-18T03:16:00;4.00;81.90
52036;DHT22;38046;49.448;32.074;2022-12-18T03:18:54;3.90;81.90
52036;DHT22;38046;49.448;32.074;2022-12-18T03:21:22;3.90;82.00
52036;DHT22;38046;49.448;32.074;2022-12-18T03:23:51;3.90;82.20
52036;DHT22;38046;49.448;32.074;2022-12-18T03:26:20;3.90;82.10
52036;DHT22;38046;49.448;32.074;2022-12-18T03:28:51;3.90;82.10
52036;DHT22;38046;49.448;32.074;2022-12-18T03:31:18;4.00;82.10
52036;DHT22;38046;49.448;32.074;2022-12-18T03:33:57;4.00;82.20
52036;DHT22;38046;49.448;32.074;2022-12-18T03:36:24;4.00;82.40
52036;DHT22;38046;49.448;32.074;2022-12-18T03:38:50;4.00;82.20
52036;DHT22;38046;49.448;32.074;2022-12-18T03:41:31;4.00;82.00
52036;DHT22;38046;49.448;32.074;2022-12-18T03:44:17;4.10;81.50
52036;DHT22;38046;49.448;32.074;2022-12-18T03:49:39;4.00;81.50
52036;DHT22;38046;49.448;32.074;2022-12-18T03:52:13;3.90;81.10
52036;DHT22;38046;49.448;32.074;2022-12-18T03:54:41;3.90;81.00
52036;DHT22;38046;49.448;32.074;2022-12-18T03:57:11;3.80;81.00
52036;DHT22;38046;49.448;32.074;2022-12-18T03:59:39;3.80;80.80
52036;DHT22;38046;49.448;32.074;2022-12-18T04:02:07;3.80;80.90
52036;DHT22;38046;49.448;32.074;2022-12-18T04:41:17;3.40;81.20
52036;DHT22;38046;49.448;32.074;2022-12-18T04:43:42;3.30;81.40
52036;DHT22;38046;49.448;32.074;2022-12-18T04:46:08;3.40;81.60
52036;DHT22;38046;49.448;32.074;2022-12-18T04:48:34;3.40;81.50
52036;DHT22;38046;49.448;32.074;2022-12-18T04:51:00;3.40;81.50
52036;DHT22;38046;49.448;32.074;2022-12-18T04:53:26;3.40;81.20
52036;DHT22;38046;49.448;32.074;2022-12-18T04:56:12;3.40;81.30
52036;DHT22;38046;49.448;32.074;2022-12-18T04:58:40;3.40;81.30
52036;DHT22;38046;49.448;32.074;2022-12-18T05:01:06;3.30;81.00
52036;DHT22;38046;49.448;32.074;2022-12-18T05:03:33;3.30;81.40
52036;DHT22;38046;49.448;32.074;2022-12-18T05:05:59;3.30;81.50
52036;DHT22;38046;49.448;32.074;2022-12-18T05:08:25;3.30;81.40
52036;DHT22;38046;49.448;32.074;2022-12-18T05:11:05;3.40;81.10
52036;DHT22;38046;49.448;32.074;2022-12-18T05:13:31;3.40;80.90
52036;DHT22;38046;49.448;32.074;2022-12-18T05:15:57;3.30;81.10
52036;DHT22;38046;49.448;32.074;2022-12-18T05:18:24;3.30;80.70
52036;DHT22;38046;49.448;32.074;2022-12-18T05:20:51;3.30;80.60
52036;DHT22;38046;49.448;32.074;2022-12-18T05:23:17;3.30;80.40
52036;DHT22;38046;49.448;32.074;2022-12-18T05:25:49;3.20;80.60
52036;DHT22;38046;49.448;32.074;2022-12-18T05:28:15;3.20;80.80
52036;DHT22;38046;49.448;32.074;2022-12-18T05:30:41;3.20;80.50
52036;DHT22;38046;49.448;32.074;2022-12-18T05:33:06;3.20;80.40
52036;DHT22;38046;49.448;32.074;2022-12-18T05:35:32;3.20;80.60
52036;DHT22;38046;49.448;32.074;2022-12-18T05:37:58;3.20;80.40
52036;DHT22;38046;49.448;32.074;2022-12-18T05:40:23;3.10;80.30
52036;DHT22;38046;49.448;32.074;2022-12-18T05:42:49;3.10;80.30
52036;DHT22;38046;49.448;32.074;2022-12-18T05:45:14;3.10;80.50
52036;DHT22;38046;49.448;32.074;2022-12-18T05:47:40;3.10;80.50
52036;DHT22;38046;49.448;32.074;2022-12-18T05:50:06;3.10;80.40
52036;DHT22;38046;49.448;32.074;2022-12-18T05:52:32;3.10;80.40
52036;DHT22;38046;49.448;32.074;2022-12-18T05:54:58;3.10;80.50
52036;DHT22;38046;49.448;32.074;2022-12-18T05:57:24;3.10;80.60
52036;DHT22;38046;49.448;32.074;2022-12-18T05:59:50;3.10;80.70
52036;DHT22;38046;49.448;32.074;2022-12-18T06:02:15;3.10;80.90
52036;DHT22;38046;49.448;32.074;2022-12-18T06:07:53;3.20;80.30
52036;DHT22;38046;49.448;32.074;2022-12-18T06:10:19;3.10;79.80
52036;DHT22;38046;49.448;32.074;2022-12-18T06:12:44;3.20;80.30
52036;DHT22;38046;49.448;32.074;2022-12-18T06:15:10;3.20;80.00
52036;DHT22;38046;49.448;32.074;2022-12-18T06:17:36;3.20;79.80
52036;DHT22;38046;49.448;32.074;2022-12-18T06:20:03;3.20;79.60
52036;DHT22;38046;49.448;32.074;2022-12-18T06:22:31;3.20;78.40
52036;DHT22;38046;49.448;32.074;2022-12-18T06:24:57;3.10;77.90
52036;DHT22;38046;49.448;32.074;2022-12-18T06:27:23;3.00;78.00
52036;DHT22;38046;49.448;32.074;2022-12-18T06:29:49;3.00;77.80
52036;DHT22;38046;49.448;32.074;2022-12-18T06:32:14;3.00;77.50
52036;DHT22;38046;49.448;32.074;2022-12-18T06:34:40;3.00;77.40
52036;DHT22;38046;49.448;32.074;2022-12-18T06:37:05;2.90;77.50
52036;DHT22;38046;49.448;32.074;2022-12-18T06:39:31;3.00;77.90
52036;DHT22;38046;49.448;32.074;2022-12-18T06:41:57;3.00;77.50
52036;DHT22;38046;49.448;32.074;2022-12-18T06:44:22;3.00;77.80
52036;DHT22;38046;49.448;32.074;2022-12-18T06:46:48;3.00;77.80
52036;DHT22;38046;49.448;32.074;2022-12-18T06:49:14;3.00;77.00
52036;DHT22;38046;49.448;32.074;2022-12-18T06:51:41;3.00;76.90
52036;DHT22;38046;49.448;32.074;2022-12-18T06:54:07;3.00;77.00
52036;DHT22;38046;49.448;32.074;2022-12-18T06:56:33;3.00;76.90
52036;DHT22;38046;49.448;32.074;2022-12-18T06:58:58;3.00;77.30
52036;DHT22;38046;49.448;32.074;2022-12-18T07:01:24;3.00;77.10
52036;DHT22;38046;49.448;32.074;2022-12-18T07:03:54;3.00;77.00
52036;DHT22;38046;49.448;32.074;2022-12-18T07:06:22;3.00;77.10
52036;DHT22;38046;49.448;32.074;2022-12-18T07:08:49;3.00;77.10
52036;DHT22;38046;49.448;32.074;2022-12-18T07:11:16;3.00;77.00
52036;DHT22;38046;49.448;32.074;2022-12-18T07:13:42;2.90;76.40
52036;DHT22;38046;49.448;32.074;2022-12-18T07:16:10;2.90;76.10
52036;DHT22;38046;49.448;32.074;2022-12-18T07:18:36;2.80;76.00
52036;DHT22;38046;49.448;32.074;2022-12-18T07:21:07;2.80;75.90
52036;DHT22;38046;49.448;32.074;2022-12-18T07:23:34;2.70;76.00
52036;DHT22;38046;49.448;32.074;2022-12-18T07:26:04;2.70;75.90
52036;DHT22;38046;49.448;32.074;2022-12-18T07:28:31;2.60;75.90
52036;DHT22;38046;49.448;32.074;2022-12-18T07:30:56;2.60;75.90
52036;DHT22;38046;49.448;32.074;2022-12-18T07:33:22;2.60;76.00
52036;DHT22;38046;49.448;32.074;2022-12-18T07:35:48;2.60;75.80
52036;DHT22;38046;49.448;32.074;2022-12-18T07:38:13;2.50;75.50
52036;DHT22;38046;49.448;32.074;2022-12-18T07:40:39;2.60;75.50
52036;DHT22;38046;49.448;32.074;2022-12-18T07:43:04;2.50;75.30
52036;DHT22;38046;49.448;32.074;2022-12-18T07:45:30;2.50;74.80
52036;DHT22;38046;49.448;32.074;2022-12-18T07:47:56;2.50;74.60
52036;DHT22;38046;49.448;32.074;2022-12-18T07:50:21;2.40;74.20
52036;DHT22;38046;49.448;32.074;2022-12-18T07:52:47;2.40;74.20
52036;DHT22;38046;49.448;32.074;2022-12-18T07:55:13;2.30;73.80
52036;DHT22;38046;49.448;32.074;2022-12-18T07:57:38;2.30;73.90
52036;DHT22;38046;49.448;32.074;2022-12-18T08:00:04;2.30;74.00
52036;DHT22;38046;49.448;32.074;2022-12-18T08:02:31;2.30;73.90
52036;DHT22;38046;49.448;32.074;2022-12-18T08:04:57;2.30;74.10
52036;DHT22;38046;49.448;32.074;2022-12-18T08:07:23;2.30;74.10
52036;DHT22;38046;49.448;32.074;2022-12-18T08:09:49;2.30;73.80
52036;DHT22;38046;49.448;32.074;2022-12-18T08:12:14;2.30;73.40
52036;DHT22;38046;49.448;32.074;2022-12-18T08:14:40;2.20;73.30
52036;DHT22;38046;49.448;32.074;2022-12-18T08:17:05;2.20;73.30
52036;DHT22;38046;49.448;32.074;2022-12-18T08:19:31;2.20;73.20
52036;DHT22;38046;49.448;32.074;2022-12-18T08:21:56;2.20;73.30
52036;DHT22;38046;49.448;32.074;2022-12-18T08:24:22;2.20;73.20
52036;DHT22;38046;49.448;32.074;2022-12-18T08:26:48;2.20;73.30
52036;DHT22;38046;49.448;32.074;2022-12-18T08:29:13;2.20;73.50
52036;DHT22;38046;49.448;32.074;2022-12-18T08:31:39;2.20;73.70
52036;DHT22;38046;49.448;32.074;2022-12-18T08:34:05;2.20;73.60
52036;DHT22;38046;49.448;32.074;2022-12-18T08:36:30;2.30;73.40
52036;DHT22;38046;49.448;32.074;2022-12-18T08:38:56;2.20;72.70
52036;DHT22;38046;49.448;32.074;2022-12-18T08:41:22;2.20;72.40
52036;DHT22;38046;49.448;32.074;2022-12-18T08:43:48;2.10;72.20
52036;DHT22;38046;49.448;32.074;2022-12-18T08:46:38;2.10;72.60
52036;DHT22;38046;49.448;32.074;2022-12-18T08:49:05;2.00;72.50
52036;DHT22;38046;49.448;32.074;2022-12-18T08:51:31;2.00;72.50
52036;DHT22;38046;49.448;32.074;2022-12-18T08:53:57;2.00;72.70
52036;DHT22;38046;49.448;32.074;2022-12-18T08:56:23;2.00;72.90
52036;DHT22;38046;49.448;32.074;2022-12-18T08:58:54;2.00;73.00
52036;DHT22;38046;49.448;32.074;2022-12-18T09:01:20;2.00;72.90
52036;DHT22;38046;49.448;32.074;2022-12-18T09:03:46;1.90;72.50
52036;DHT22;38046;49.448;32.074;2022-12-18T09:06:14;1.90;72.50
52036;DHT22;38046;49.448;32.074;2022-12-18T09:08:41;1.90;72.20
52036;DHT22;38046;49.448;32.074;2022-12-18T09:11:21;1.80;72.20
52036;DHT22;38046;49.448;32.074;2022-12-18T09:13:47;1.70;72.20
52036;DHT22;38046;49.448;32.074;2022-12-18T09:16:13;1.70;72.10
52036;DHT22;38046;49.448;32.074;2022-12-18T09:18:39;1.60;72.20
52036;DHT22;38046;49.448;32.074;2022-12-18T09:21:10;1.60;72.30
52036;DHT22;38046;49.448;32.074;2022-12-18T09:23:35;1.60;72.20
52036;DHT22;38046;49.448;32.074;2022-12-18T09:26:01;1.60;72.00
52036;DHT22;38046;49.448;32.074;2022-12-18T09:28:27;1.60;71.70
52036;DHT22;38046;49.448;32.074;2022-12-18T09:30:52;1.50;71.80
52036;DHT22;38046;49.448;32.074;2022-12-18T09:33:18;1.50;72.00
52036;DHT22;38046;49.448;32.074;2022-12-18T09:35:44;1.50;71.90
52036;DHT22;38046;49.448;32.074;2022-12-18T09:38:17;1.50;71.80
52036;DHT22;38046;49.448;32.074;2022-12-18T09:40:48;1.50;71.80
52036;DHT22;38046;49.448;32.074;2022-12-18T09:43:18;1.50;72.10
52036;DHT22;38046;49.448;32.074;2022-12-18T09:45:49;1.50;71.90
52036;DHT22;38046;49.448;32.074;2022-12-18T09:48:25;1.50;71.60
52036;DHT22;38046;49.448;32.074;2022-12-18T09:50:57;1.50;71.60
52036;DHT22;38046;49.448;32.074;2022-12-18T09:53:27;1.40;71.60
52036;DHT22;38046;49.448;32.074;2022-12-18T09:55:56;1.40;71.60
52036;DHT22;38046;49.448;32.074;2022-12-18T09:58:33;1.50;71.70
52036;DHT22;38046;49.448;32.074;2022-12-18T10:01:01;1.50;71.40
52036;DHT22;38046;49.448;32.074;2022-12-18T10:26:45;1.30;70.50
52036;DHT22;38046;49.448;32.074;2022-12-18T10:29:13;1.30;70.50
52036;DHT22;38046;49.448;32.074;2022-12-18T10:31:39;1.30;70.60
52036;DHT22;38046;49.448;32.074;2022-12-18T10:34:09;1.30;70.50
52036;DHT22;38046;49.448;32.074;2022-12-18T10:36:35;1.30;70.30
52036;DHT22;38046;49.448;32.074;2022-12-18T10:39:24;1.20;70.30
52036;DHT22;38046;49.448;32.074;2022-12-18T10:41:51;1.20;70.10
52036;DHT22;38046;49.448;32.074;2022-12-18T10:44:19;1.20;70.20
52036;DHT22;38046;49.448;32.074;2022-12-18T10:46:51;1.20;70.60
52036;DHT22;38046;49.448;32.074;2022-12-18T10:51:49;1.20;70.90
52036;DHT22;38046;49.448;32.074;2022-12-18T10:54:22;1.30;70.90
52036;DHT22;38046;49.448;32.074;2022-12-18T10:56:49;1.30;70.60
52036;DHT22;38046;49.448;32.074;2022-12-18T10:59:17;1.30;70.50
52036;DHT22;38046;49.448;32.074;2022-12-18T11:01:57;1.30;70.30
52036;DHT22;38046;49.448;32.074;2022-12-18T11:04:25;1.30;70.20
52036;DHT22;38046;49.448;32.074;2022-12-18T11:06:55;1.30;70.40
52036;DHT22;38046;49.448;32.074;2022-12-18T11:09:27;1.30;70.40
52036;DHT22;38046;49.448;32.074;2022-12-18T11:11:55;1.30;70.00
52036;DHT22;38046;49.448;32.074;2022-12-18T11:14:33;1.30;69.90
52036;DHT22;38046;49.448;32.074;2022-12-18T11:16:59;1.30;70.00
52036;DHT22;38046;49.448;32.074;2022-12-18T11:21:57;1.20;69.30
52036;DHT22;38046;49.448;32.074;2022-12-18T11:24:35;1.20;69.20
52036;DHT22;38046;49.448;32.074;2022-12-18T11:27:05;1.20;69.50
52036;DHT22;38046;49.448;32.074;2022-12-18T11:29:37;1.20;69.30
52036;DHT22;38046;49.448;32.074;2022-12-18T11:32:37;1.20;69.10
52036;DHT22;38046;49.448;32.074;2022-12-18T11:35:55;1.20;68.80
52036;DHT22;38046;49.448;32.074;2022-12-18T11:38:05;1.20;69.20
52036;DHT22;38046;49.448;32.074;2022-12-18T11:40:41;1.20;69.00
52036;DHT22;38046;49.448;32.074;2022-12-18T11:43:14;1.20;69.00
52036;DHT22;38046;49.448;32.074;2022-12-18T11:46:08;1.20;69.00
52036;DHT22;38046;49.448;32.074;2022-12-18T11:48:49;1.20;68.90
52036;DHT22;38046;49.448;32.074;2022-12-18T11:51:21;1.20;69.10
52036;DHT22;38046;49.448;32.074;2022-12-18T11:53:51;1.10;68.90
52036;DHT22;38046;49.448;32.074;2022-12-18T12:09:23;1.10;69.20
52036;DHT22;38046;49.448;32.074;2022-12-18T12:19:57;1.10;69.00
52036;DHT22;38046;49.448;32.074;2022-12-18T12:22:52;1.20;69.20
52036;DHT22;38046;49.448;32.074;2022-12-18T12:28:07;1.20;69.20
52036;DHT22;38046;49.448;32.074;2022-12-18T12:36:13;1.20;69.20
52036;DHT22;38046;49.448;32.074;2022-12-18T12:38:55;1.10;68.70
52036;DHT22;38046;49.448;32.074;2022-12-18T12:41:26;1.20;69.40
52036;DHT22;38046;49.448;32.074;2022-12-18T12:44:39;1.10;69.60
52036;DHT22;38046;49.448;32.074;2022-12-18T12:47:26;1.10;69.20
52036;DHT22;38046;49.448;32.074;2022-12-18T12:49:54;1.10;69.50
52036;DHT22;38046;49.448;32.074;2022-12-18T12:54:55;1.10;70.00
52036;DHT22;38046;49.448;32.074;2022-12-18T12:57:30;1.00;70.00
52036;DHT22;38046;49.448;32.074;2022-12-18T13:00:07;1.00;70.00
52036;DHT22;38046;49.448;32.074;2022-12-18T13:05:49;1.00;70.20
52036;DHT22;38046;49.448;32.074;2022-12-18T13:08:10;1.00;70.30
52036;DHT22;38046;49.448;32.074;2022-12-18T13:10:40;1.10;70.30
52036;DHT22;38046;49.448;32.074;2022-12-18T13:13:11;1.10;70.50
52036;DHT22;38046;49.448;32.074;2022-12-18T13:16:06;1.10;70.40
52036;DHT22;38046;49.448;32.074;2022-12-18T13:18:32;1.20;70.60
52036;DHT22;38046;49.448;32.074;2022-12-18T13:26:00;1.10;70.10
52036;DHT22;38046;49.448;32.074;2022-12-18T13:31:15;1.10;69.80
52036;DHT22;38046;49.448;32.074;2022-12-18T13:34:24;1.10;69.70
52036;DHT22;38046;49.448;32.074;2022-12-18T13:36:53;1.00;69.70
52036;DHT22;38046;49.448;32.074;2022-12-18T13:41:48;1.00;69.70
52036;DHT22;38046;49.448;32.074;2022-12-18T13:44:33;1.00;70.10
52036;DHT22;38046;49.448;32.074;2022-12-18T13:47:01;1.00;70.00
52036;DHT22;38046;49.448;32.074;2022-12-18T13:49:43;0.90;70.70
52036;DHT22;38046;49.448;32.074;2022-12-18T13:52:22;0.90;69.90
52036;DHT22;38046;49.448;32.074;2022-12-18T13:55:01;0.90;69.90
52036;DHT22;38046;49.448;32.074;2022-12-18T13:57:35;0.80;70.10
52036;DHT22;38046;49.448;32.074;2022-12-18T14:02:45;0.80;70.20
52036;DHT22;38046;49.448;32.074;2022-12-18T14:05:23;0.80;70.20
52036;DHT22;38046;49.448;32.074;2022-12-18T14:07:49;0.80;70.40
52036;DHT22;38046;49.448;32.074;2022-12-18T14:10:16;0.80;70.30
52036;DHT22;38046;49.448;32.074;2022-12-18T14:12:45;0.80;70.00
52036;DHT22;38046;49.448;32.074;2022-12-18T14:15:46;0.80;70.00
52036;DHT22;38046;49.448;32.074;2022-12-18T14:18:29;0.80;70.20
52036;DHT22;38046;49.448;32.074;2022-12-18T14:20:59;0.80;70.10
52036;DHT22;38046;49.448;32.074;2022-12-18T14:23:38;0.70;70.20
52036;DHT22;38046;49.448;32.074;2022-12-18T14:26:21;0.70;69.90
52036;DHT22;38046;49.448;32.074;2022-12-18T14:28:47;0.70;70.20
52036;DHT22;38046;49.448;32.074;2022-12-18T14:31:24;0.70;70.60
52036;DHT22;38046;49.448;32.074;2022-12-18T14:33:50;0.80;70.40
52036;DHT22;38046;49.448;32.074;2022-12-18T14:36:18;0.80;70.30
52036;DHT22;38046;49.448;32.074;2022-12-18T14:38:49;0.80;70.00
52036;DHT22;38046;49.448;32.074;2022-12-18T14:41:16;0.80;70.10
52036;DHT22;38046;49.448;32.074;2022-12-18T14:43:44;0.80;70.40
52036;DHT22;38046;49.448;32.074;2022-12-18T14:46:30;0.80;70.30
52036;DHT22;38046;49.448;32.074;2022-12-18T14:49:05;0.90;70.60
52036;DHT22;38046;49.448;32.074;2022-12-18T14:51:53;0.90;70.70
52036;DHT22;38046;49.448;32.074;2022-12-18T14:54:20;0.90;70.70
52036;DHT22;38046;49.448;32.074;2022-12-18T14:56:49;0.80;70.20
52036;DHT22;38046;49.448;32.074;2022-12-18T14:59:26;0.90;70.20
52036;DHT22;38046;49.448;32.074;2022-12-18T15:04:35;0.90;70.70
52036;DHT22;38046;49.448;32.074;2022-12-18T15:07:06;0.80;70.30
52036;DHT22;38046;49.448;32.074;2022-12-18T15:09:33;0.80;70.20
52036;DHT22;38046;49.448;32.074;2022-12-18T15:12:02;0.70;69.70
52036;DHT22;38046;49.448;32.074;2022-12-18T15:17:16;0.70;70.60
52036;DHT22;38046;49.448;32.074;2022-12-18T15:19:44;0.70;71.00
52036;DHT22;38046;49.448;32.074;2022-12-18T15:22:31;0.70;70.90
52036;DHT22;38046;49.448;32.074;2022-12-18T15:24:59;0.70;71.20
52036;DHT22;38046;49.448;32.074;2022-12-18T15:27:33;0.70;71.00
52036;DHT22;38046;49.448;32.074;2022-12-18T15:32:39;0.70;70.70
52036;DHT22;38046;49.448;32.074;2022-12-18T15:35:20;0.70;70.70
52036;DHT22;38046;49.448;32.074;2022-12-18T15:37:47;0.70;70.80
52036;DHT22;38046;49.448;32.074;2022-12-18T15:40:14;0.70;70.70
52036;DHT22;38046;49.448;32.074;2022-12-18T15:42:41;0.70;71.10
52036;DHT22;38046;49.448;32.074;2022-12-18T15:45:25;0.70;70.70
52036;DHT22;38046;49.448;32.074;2022-12-18T15:47:51;0.70;70.80
52036;DHT22;38046;49.448;32.074;2022-12-18T15:50:16;0.70;71.00
52036;DHT22;38046;49.448;32.074;2022-12-18T15:52:45;0.70;71.40
52036;DHT22;38046;49.448;32.074;2022-12-18T15:55:22;0.70;70.90
52036;DHT22;38046;49.448;32.074;2022-12-18T15:58:08;0.70;70.90
52036;DHT22;38046;49.448;32.074;2022-12-18T16:00:35;0.70;71.10
52036;DHT22;38046;49.448;32.074;2022-12-18T16:49:50;0.50;70.80
52036;DHT22;38046;49.448;32.074;2022-12-18T16:52:18;0.50;71.20
52036;DHT22;38046;49.448;32.074;2022-12-18T16:54:44;0.50;70.90
52036;DHT22;38046;49.448;32.074;2022-12-18T16:57:12;0.50;71.10
52036;DHT22;38046;49.448;32.074;2022-12-18T16:59:38;0.50;71.20
52036;DHT22;38046;49.448;32.074;2022-12-18T17:02:04;0.50;71.30
52036;DHT22;38046;49.448;32.074;2022-12-18T17:04:30;0.60;71.40
52036;DHT22;38046;49.448;32.074;2022-12-18T17:06:56;0.50;71.30
52036;DHT22;38046;49.448;32.074;2022-12-18T17:09:21;0.60;71.20
52036;DHT22;38046;49.448;32.074;2022-12-18T17:11:51;0.60;71.40
52036;DHT22;38046;49.448;32.074;2022-12-18T17:14:18;0.60;71.70
52036;DHT22;38046;49.448;32.074;2022-12-18T17:16:45;0.60;71.50
52036;DHT22;38046;49.448;32.074;2022-12-18T17:19:12;0.60;71.70
52036;DHT22;38046;49.448;32.074;2022-12-18T17:21:38;0.60;71.40
52036;DHT22;38046;49.448;32.074;2022-12-18T17:24:04;0.60;71.60
52036;DHT22;38046;49.448;32.074;2022-12-18T17:26:30;0.60;71.80
52036;DHT22;38046;49.448;32.074;2022-12-18T17:28:56;0.60;71.60
52036;DHT22;38046;49.448;32.074;2022-12-18T17:31:24;0.60;71.80
52036;DHT22;38046;49.448;32.074;2022-12-18T17:33:50;0.60;71.90
52036;DHT22;38046;49.448;32.074;2022-12-18T17:36:17;0.60;72.00
52036;DHT22;38046;49.448;32.074;2022-12-18T17:38:48;0.60;71.90
52036;DHT22;38046;49.448;32.074;2022-12-18T17:41:14;0.60;71.90
52036;DHT22;38046;49.448;32.074;2022-12-18T17:43:39;0.60;71.60
52036;DHT22;38046;49.448;32.074;2022-12-18T17:46:14;0.60;71.70
52036;DHT22;38046;49.448;32.074;2022-12-18T17:48:40;0.60;71.90
52036;DHT22;38046;49.448;32.074;2022-12-18T17:51:07;0.60;71.90
52036;DHT22;38046;49.448;32.074;2022-12-18T17:53:34;0.60;72.00
52036;DHT22;38046;49.448;32.074;2022-12-18T17:56:00;0.50;72.20
52036;DHT22;38046;49.448;32.074;2022-12-18T17:58:27;0.60;72.00
52036;DHT22;38046;49.448;32.074;2022-12-18T18:07:21;0.50;71.30
52036;DHT22;38046;49.448;32.074;2022-12-18T18:09:46;0.50;71.20
52036;DHT22;38046;49.448;32.074;2022-12-18T18:12:12;0.40;71.20
52036;DHT22;38046;49.448;32.074;2022-12-18T18:14:56;0.40;71.40
52036;DHT22;38046;49.448;32.074;2022-12-18T18:17:22;0.40;71.60
52036;DHT22;38046;49.448;32.074;2022-12-18T18:19:48;0.40;71.80
52036;DHT22;38046;49.448;32.074;2022-12-18T18:22:13;0.40;71.60
52036;DHT22;38046;49.448;32.074;2022-12-18T18:24:39;0.40;71.50
52036;DHT22;38046;49.448;32.074;2022-12-18T18:27:04;0.40;71.50
52036;DHT22;38046;49.448;32.074;2022-12-18T18:29:30;0.50;71.90
52036;DHT22;38046;49.448;32.074;2022-12-18T18:31:56;0.50;72.00
52036;DHT22;38046;49.448;32.074;2022-12-18T18:34:30;0.50;72.20
52036;DHT22;38046;49.448;32.074;2022-12-18T18:36:58;0.50;72.50
52036;DHT22;38046;49.448;32.074;2022-12-18T18:39:24;0.40;72.70
52036;DHT22;38046;49.448;32.074;2022-12-18T18:41:50;0.40;72.70
52036;DHT22;38046;49.448;32.074;2022-12-18T18:44:16;0.40;72.40
52036;DHT22;38046;49.448;32.074;2022-12-18T18:46:43;0.40;72.80
52036;DHT22;38046;49.448;32.074;2022-12-18T18:49:09;0.40;72.60
52036;DHT22;38046;49.448;32.074;2022-12-18T18:51:35;0.40;72.50
52036;DHT22;38046;49.448;32.074;2022-12-18T18:54:01;0.40;72.80
52036;DHT22;38046;49.448;32.074;2022-12-18T18:56:27;0.40;72.80
52036;DHT22;38046;49.448;32.074;2022-12-18T18:58:56;0.40;72.80